Time;durP1;ratioP1;P1;durP2;ratioP2;P2;SDS_P1;SDS_P2;PMS_P1;PMS_P2;Temp;Humidity;BMP_temperature;BMP_pressure;BME280_temperature;BME280_humidity;BME280_pressure;Samples;Min_cycle;Max_cycle;Signal;HPM_P1;HPM_P2
2023/08/13 00:00:39;;;;;;;1999.90;999.90;;;18.50;99.90;;;;;;5074909;28;20108;-71
2023/08/13 00:03:04;;;;;;;1999.90;999.90;;;18.40;99.90;;;;;;5074483;28;20060;-71
2023/08/13 00:05:30;;;;;;;1999.90;999.90;;;18.50;99.90;;;;;;5073780;28;20029;-71
2023/08/13 00:07:55;;;;;;;1999.90;999.90;;;18.50;99.90;;;;;;5074744;28;20037;-71
2023/08/13 00:10:21;;;;;;;1999.90;999.90;;;18.40;99.90;;;;;;5056276;28;20403;-71
2023/08/13 00:12:47;;;;;;;1999.90;999.90;;;18.40;99.90;;;;;;5074340;28;20124;-71
2023/08/13 00:15:13;;;;;;;1999.90;999.90;;;18.40;99.90;;;;;;5074344;28;20029;-71
2023/08/13 00:17:38;;;;;;;1999.90;999.90;;;18.40;99.90;;;;;;5074134;28;20047;-71
2023/08/13 00:20:05;;;;;;;1999.90;999.90;;;18.40;99.90;;;;;;5074034;28;20064;-71
2023/08/13 00:22:31;;;;;;;1999.90;999.90;;;18.40;99.90;;;;;;5073780;28;20029;-71
2023/08/13 00:24:57;;;;;;;1999.90;999.90;;;18.40;99.90;;;;;;5055878;28;20029;-71
2023/08/13 00:27:23;;;;;;;1999.90;999.90;;;18.40;99.90;;;;;;5074402;28;20434;-71
2023/08/13 00:29:49;;;;;;;1999.90;999.90;;;18.50;99.90;;;;;;5074241;28;20030;-71
2023/08/13 00:32:15;;;;;;;1999.90;999.90;;;18.40;99.90;;;;;;5055764;28;20041;-71
2023/08/13 00:34:40;;;;;;;1999.90;999.90;;;18.60;99.90;;;;;;5073904;28;20433;-71
2023/08/13 00:37:06;;;;;;;1999.90;999.90;;;18.60;99.90;;;;;;5073767;28;20064;-71
2023/08/13 00:39:31;;;;;;;1999.90;999.90;;;18.60;99.90;;;;;;5055829;28;20086;-71
2023/08/13 00:41:57;;;;;;;1999.90;999.90;;;18.50;99.90;;;;;;5077050;28;20037;-71
2023/08/13 00:44:23;;;;;;;1999.90;999.90;;;18.50;99.90;;;;;;5077351;28;20029;-71
2023/08/13 00:46:49;;;;;;;1999.90;999.90;;;18.50;99.90;;;;;;5077273;28;20029;-71
2023/08/13 00:49:15;;;;;;;1999.90;999.90;;;18.40;99.90;;;;;;5077541;28;20104;-71
2023/08/13 00:51:41;;;;;;;1999.90;999.90;;;18.40;99.90;;;;;;5077595;28;20829;-71
2023/08/13 00:54:08;;;;;;;1999.90;999.90;;;18.40;99.90;;;;;;5059057;28;20036;-71
2023/08/13 00:56:35;;;;;;;1999.90;999.90;;;18.40;99.90;;;;;;5077164;28;20044;-71
2023/08/13 00:59:01;;;;;;;1999.90;999.90;;;18.40;99.90;;;;;;5059111;28;20036;-71
2023/08/13 01:01:26;;;;;;;1999.90;999.90;;;18.30;99.90;;;;;;5076761;28;20513;-71
2023/08/13 01:03:52;;;;;;;1999.90;999.90;;;18.20;99.90;;;;;;5077317;28;20033;-71
2023/08/13 01:06:59;;;;;;;1999.90;999.90;;;18.30;99.90;;;;;;5076868;28;20037;-71
2023/08/13 01:09:47;;;;;;;1999.90;999.90;;;18.10;99.90;;;;;;5049013;28;20095;-71
2023/08/13 01:12:46;;;;;;;1999.90;999.90;;;18.10;99.90;;;;;;5077424;28;20045;-71
2023/08/13 01:15:19;;;;;;;1999.90;999.90;;;18.20;99.90;;;;;;5058543;28;20033;-71
2023/08/13 01:17:48;;;;;;;1999.90;999.90;;;18.20;99.90;;;;;;5075972;28;20041;-71
2023/08/13 01:20:15;;;;;;;1999.90;999.90;;;18.20;99.90;;;;;;5076809;28;20116;-71
2023/08/13 01:22:48;;;;;;;1999.90;999.90;;;18.20;99.90;;;;;;5058964;28;20527;-71
2023/08/13 01:25:14;;;;;;;1999.90;999.90;;;18.20;99.90;;;;;;5076723;28;20067;-71
2023/08/13 01:27:46;;;;;;;1999.90;999.90;;;18.20;99.90;;;;;;5076829;28;20037;-71
2023/08/13 01:30:20;;;;;;;1999.90;999.90;;;18.30;99.90;;;;;;5077016;28;20064;-71
2023/08/13 01:32:59;;;;;;;1999.90;999.90;;;18.30;99.90;;;;;;5077077;28;20517;-71
2023/08/13 01:35:26;;;;;;;1999.90;999.90;;;18.40;99.90;;;;;;5076436;28;20040;-71
2023/08/13 01:37:52;;;;;;;1999.90;999.90;;;18.50;99.90;;;;;;5076861;28;20039;-71
2023/08/13 01:40:18;;;;;;;1999.90;999.90;;;18.50;99.90;;;;;;5076993;28;20048;-71
2023/08/13 01:42:44;;;;;;;1999.90;999.90;;;18.40;99.90;;;;;;5076758;28;20037;-71
2023/08/13 01:45:10;;;;;;;1999.90;999.90;;;18.30;99.90;;;;;;5076667;28;20040;-71
2023/08/13 01:47:35;;;;;;;1999.90;999.90;;;18.30;99.90;;;;;;5076833;28;20035;-71
2023/08/13 01:50:01;;;;;;;1999.90;999.90;;;18.30;99.90;;;;;;5076809;28;20029;-71
2023/08/13 01:52:26;;;;;;;1999.90;999.90;;;18.30;99.90;;;;;;5075768;28;20514;-70
2023/08/13 01:54:52;;;;;;;1999.90;999.90;;;18.30;99.90;;;;;;5076366;28;20021;-71
2023/08/13 01:57:18;;;;;;;1999.90;999.90;;;18.20;99.90;;;;;;5076308;28;20499;-71
2023/08/13 01:59:43;;;;;;;1999.90;999.90;;;18.30;99.90;;;;;;5075686;28;20029;-71
2023/08/13 02:02:09;;;;;;;1999.90;999.90;;;18.20;99.90;;;;;;5076812;28;20136;-71
2023/08/13 02:04:35;;;;;;;1999.90;999.90;;;18.20;99.90;;;;;;5076360;28;20044;-71
2023/08/13 02:07:00;;;;;;;1999.90;999.90;;;18.30;99.90;;;;;;5076079;28;20500;-70
2023/08/13 02:09:26;;;;;;;1999.90;999.90;;;18.30;99.90;;;;;;5074818;28;20025;-71
2023/08/13 02:11:51;;;;;;;1999.90;999.90;;;18.20;99.90;;;;;;5076142;28;20081;-71
2023/08/13 02:14:17;;;;;;;1999.90;999.90;;;18.20;99.90;;;;;;5076170;28;20126;-71
2023/08/13 02:16:42;;;;;;;1999.90;999.90;;;18.20;99.90;;;;;;5076053;28;20044;-71
2023/08/13 02:19:08;;;;;;;1999.90;999.90;;;18.30;99.90;;;;;;5076253;28;20091;-71
2023/08/13 02:21:33;;;;;;;1999.90;999.90;;;18.30;99.90;;;;;;5076184;28;20045;-71
2023/08/13 02:23:59;;;;;;;1999.90;999.90;;;18.30;99.90;;;;;;5075912;28;20159;-71
2023/08/13 02:26:24;;;;;;;1999.90;999.90;;;18.30;99.90;;;;;;5075736;28;20112;-71
2023/08/13 02:28:50;;;;;;;1999.90;999.90;;;18.30;99.90;;;;;;5076229;28;20033;-71
2023/08/13 02:31:15;;;;;;;1999.90;999.90;;;18.30;99.90;;;;;;5057670;28;20044;-71
2023/08/13 02:33:41;;;;;;;1999.90;999.90;;;18.40;99.90;;;;;;5076166;28;20040;-71
2023/08/13 02:36:06;;;;;;;1999.90;999.90;;;18.40;99.90;;;;;;5075470;28;20454;-71
2023/08/13 02:38:32;;;;;;;1999.90;999.90;;;18.40;99.90;;;;;;5075686;28;20107;-71
2023/08/13 02:40:57;;;;;;;1999.90;999.90;;;18.40;99.90;;;;;;5075835;28;20051;-71
2023/08/13 02:43:27;;;;;;;1999.90;999.90;;;18.60;99.90;;;;;;5075857;28;20047;-71
2023/08/13 02:45:52;;;;;;;1999.90;999.90;;;18.60;99.90;;;;;;5075341;28;20036;-71
2023/08/13 02:48:18;;;;;;;1999.90;999.90;;;18.60;99.90;;;;;;5075924;28;20045;-71
2023/08/13 02:50:43;;;;;;;1999.90;999.90;;;18.60;99.90;;;;;;5075464;28;20037;-71
2023/08/13 02:53:09;;;;;;;1999.90;999.90;;;18.50;99.90;;;;;;5057342;28;20065;-70
2023/08/13 02:55:34;;;;;;;1999.90;999.90;;;18.40;99.90;;;;;;5075264;28;20041;-71
2023/08/13 02:58:00;;;;;;;1999.90;999.90;;;18.50;99.90;;;;;;5075717;28;20395;-70
2023/08/13 03:00:25;;;;;;;1999.90;999.90;;;18.50;99.90;;;;;;5075731;28;20029;-71
2023/08/13 03:02:51;;;;;;;1999.90;999.90;;;18.50;99.90;;;;;;5075487;28;20052;-71
2023/08/13 03:05:16;;;;;;;1999.90;999.90;;;18.50;99.90;;;;;;5075237;28;20090;-71
2023/08/13 03:07:42;;;;;;;1999.90;999.90;;;18.40;99.90;;;;;;5075513;28;20101;-71
2023/08/13 03:10:08;;;;;;;1999.90;999.90;;;18.40;99.90;;;;;;5075348;28;20033;-71
2023/08/13 03:12:33;;;;;;;1999.90;999.90;;;18.40;99.90;;;;;;5074949;28;20041;-71
2023/08/13 03:14:59;;;;;;;1999.90;999.90;;;18.50;99.90;;;;;;5074777;28;20029;-71
2023/08/13 03:17:24;;;;;;;1999.90;999.90;;;18.50;99.90;;;;;;5074971;28;20062;-71
2023/08/13 03:19:50;;;;;;;1999.90;999.90;;;18.50;99.90;;;;;;5056863;28;20040;-71
2023/08/13 03:22:15;;;;;;;1999.90;999.90;;;18.50;99.90;;;;;;5074645;28;20041;-70
2023/08/13 03:24:41;;;;;;;1999.90;999.90;;;18.60;99.90;;;;;;5074834;28;20829;-70
2023/08/13 03:27:07;;;;;;;1999.90;999.90;;;18.70;99.90;;;;;;5074700;28;20386;-71
2023/08/13 03:29:32;;;;;;;1999.90;999.90;;;18.60;99.90;;;;;;5075078;28;20387;-71
2023/08/13 03:31:58;;;;;;;1999.90;999.90;;;18.60;99.90;;;;;;5075141;28;20049;-71
2023/08/13 03:34:23;;;;;;;1999.90;999.90;;;18.60;99.90;;;;;;5074552;28;20024;-71
2023/08/13 03:36:49;;;;;;;1999.90;999.90;;;18.40;99.90;;;;;;5074594;28;20091;-71
2023/08/13 03:39:14;;;;;;;1999.90;999.90;;;18.40;99.90;;;;;;5075039;28;20041;-71
2023/08/13 03:41:40;;;;;;;1999.90;999.90;;;18.50;99.90;;;;;;5075133;28;20151;-70
2023/08/13 03:44:05;;;;;;;1999.90;999.90;;;18.50;99.90;;;;;;5074693;28;20082;-70
2023/08/13 03:46:32;;;;;;;1999.90;999.90;;;18.40;99.90;;;;;;5074670;28;20037;-71
2023/08/13 03:48:58;;;;;;;1999.90;999.90;;;18.40;99.90;;;;;;5074831;28;20039;-70
2023/08/13 03:51:23;;;;;;;1999.90;999.90;;;18.30;99.90;;;;;;5074857;28;20032;-71
2023/08/13 03:53:49;;;;;;;1999.90;999.90;;;18.40;99.90;;;;;;5074799;28;20036;-71
2023/08/13 03:56:14;;;;;;;1999.90;999.90;;;18.40;99.90;;;;;;5074250;28;20116;-71
2023/08/13 03:58:40;;;;;;;1999.90;999.90;;;18.40;99.90;;;;;;5074628;28;20064;-71
2023/08/13 04:01:06;;;;;;;1999.90;999.90;;;18.40;99.90;;;;;;5074730;28;20032;-71
2023/08/13 04:03:32;;;;;;;1999.90;999.90;;;18.40;99.90;;;;;;5074422;28;20877;-71
2023/08/13 04:05:58;;;;;;;1999.90;999.90;;;18.40;99.90;;;;;;5073698;28;20053;-71
2023/08/13 04:08:23;;;;;;;1999.90;999.90;;;18.50;99.90;;;;;;5074693;28;20106;-71
2023/08/13 04:10:53;;;;;;;1999.90;999.90;;;18.50;99.90;;;;;;5074548;28;20044;-71
2023/08/13 04:13:19;;;;;;;1999.90;999.90;;;18.50;99.90;;;;;;5074559;28;20128;-71
2023/08/13 04:15:45;;;;;;;1999.90;999.90;;;18.60;99.90;;;;;;5073359;28;20451;-71
2023/08/13 04:18:10;;;;;;;1999.90;999.90;;;18.50;99.90;;;;;;5074563;28;20556;-71
2023/08/13 04:20:39;;;;;;;1999.90;999.90;;;18.50;99.90;;;;;;5074319;28;20104;-71
2023/08/13 04:23:05;;;;;;;1999.90;999.90;;;18.40;99.90;;;;;;5074325;28;20033;-71
2023/08/13 04:25:31;;;;;;;1999.90;999.90;;;18.50;99.90;;;;;;5073874;28;20029;-71
2023/08/13 04:27:57;;;;;;;1999.90;999.90;;;18.40;99.90;;;;;;5074263;28;20083;-71
2023/08/13 04:30:22;;;;;;;1999.90;999.90;;;18.40;99.90;;;;;;5074074;28;20413;-71
2023/08/13 04:32:55;;;;;;;1999.90;999.90;;;18.40;99.90;;;;;;5074184;28;20044;-71
2023/08/13 04:35:22;;;;;;;1999.90;999.90;;;18.40;99.90;;;;;;5074081;28;20082;-71
2023/08/13 04:37:48;;;;;;;1999.90;999.90;;;18.40;99.90;;;;;;5073920;28;20037;-70
2023/08/13 04:40:14;;;;;;;1999.90;999.90;;;18.50;99.90;;;;;;5074085;28;20115;-71
2023/08/13 04:42:41;;;;;;;1999.90;999.90;;;18.50;99.90;;;;;;5074177;28;20104;-71
2023/08/13 04:45:07;;;;;;;1999.90;999.90;;;18.50;99.90;;;;;;5073667;28;20506;-71
2023/08/13 04:47:32;;;;;;;1999.90;999.90;;;18.50;99.90;;;;;;5073940;28;20103;-71
2023/08/13 04:49:58;;;;;;;1999.90;999.90;;;18.50;99.90;;;;;;5073829;28;20037;-71
2023/08/13 04:52:23;;;;;;;1999.90;999.90;;;18.50;99.90;;;;;;5055581;28;20045;-71
2023/08/13 04:54:49;;;;;;;1999.90;999.90;;;18.60;99.90;;;;;;5073841;28;20029;-71
2023/08/13 04:57:14;;;;;;;1999.90;999.90;;;18.60;99.90;;;;;;5073882;28;20509;-71
2023/08/13 04:59:40;;;;;;;1999.90;999.90;;;18.60;99.90;;;;;;5073764;28;20083;-71
2023/08/13 05:02:06;;;;;;;1999.90;999.90;;;18.70;99.90;;;;;;5074018;28;20033;-71
2023/08/13 05:04:31;;;;;;;1999.90;999.90;;;18.70;99.90;;;;;;5073682;28;20028;-71
2023/08/13 05:06:57;;;;;;;1999.90;999.90;;;18.70;99.90;;;;;;5072987;28;20484;-71
2023/08/13 05:09:22;;;;;;;1999.90;999.90;;;18.70;99.90;;;;;;5073858;28;20044;-71
2023/08/13 05:11:48;;;;;;;1999.90;999.90;;;18.80;99.90;;;;;;5073668;28;20040;-71
2023/08/13 05:14:14;;;;;;;1999.90;999.90;;;18.80;99.90;;;;;;5073218;28;20033;-71
2023/08/13 05:16:39;;;;;;;1999.90;999.90;;;18.90;99.90;;;;;;5055194;28;20046;-71
2023/08/13 05:19:05;;;;;;;1999.90;999.90;;;18.90;99.90;;;;;;5073473;28;20029;-71
2023/08/13 05:21:30;;;;;;;1999.90;999.90;;;18.90;99.90;;;;;;5055371;28;20497;-71
2023/08/13 05:23:56;;;;;;;1999.90;999.90;;;18.90;99.90;;;;;;5073403;28;20386;-70
2023/08/13 05:26:22;;;;;;;1999.90;999.90;;;19.00;99.90;;;;;;5073450;28;20045;-71
2023/08/13 05:28:47;;;;;;;1999.90;999.90;;;19.00;99.90;;;;;;5076226;28;20115;-71
2023/08/13 05:31:13;;;;;;;1999.90;999.90;;;19.00;99.90;;;;;;5077136;28;20064;-70
2023/08/13 05:33:39;;;;;;;1999.90;999.90;;;19.10;99.90;;;;;;5076994;28;20379;-71
2023/08/13 05:36:05;;;;;;;1999.90;999.90;;;19.10;99.90;;;;;;5057950;28;20394;-71
2023/08/13 05:38:32;;;;;;;1999.90;999.90;;;19.10;99.90;;;;;;5076679;28;20037;-71
2023/08/13 05:40:57;;;;;;;1999.90;999.90;;;19.20;99.90;;;;;;5076878;28;20140;-71
2023/08/13 05:43:23;;;;;;;1999.90;999.90;;;19.30;99.90;;;;;;5076676;28;20120;-71
2023/08/13 05:45:49;;;;;;;1999.90;999.90;;;19.40;99.90;;;;;;5076231;28;20091;-71
2023/08/13 05:48:14;;;;;;;1999.90;999.90;;;19.40;99.90;;;;;;5076600;28;20614;-71
2023/08/13 05:50:40;;;;;;;1999.90;999.90;;;19.60;99.90;;;;;;5076679;28;20056;-71
2023/08/13 05:53:05;;;;;;;1999.90;999.90;;;19.70;99.90;;;;;;5076554;28;20502;-71
2023/08/13 05:55:31;;;;;;;1999.90;999.90;;;19.50;99.90;;;;;;5076178;28;20041;-71
2023/08/13 05:57:57;;;;;;;1999.90;999.90;;;19.70;99.90;;;;;;5076278;28;20048;-70
2023/08/13 06:00:23;;;;;;;1999.90;999.90;;;19.90;99.90;;;;;;5076647;28;20033;-71
2023/08/13 06:02:49;;;;;;;1999.90;999.90;;;19.90;99.90;;;;;;5076259;28;20542;-71
2023/08/13 06:05:14;;;;;;;1999.90;999.90;;;19.90;99.90;;;;;;5076194;28;20037;-71
2023/08/13 06:07:40;;;;;;;1999.90;999.90;;;20.10;99.90;;;;;;5076015;28;20036;-71
2023/08/13 06:10:06;;;;;;;1999.90;999.90;;;20.10;99.90;;;;;;5076164;28;20033;-71
2023/08/13 06:12:32;;;;;;;1999.90;999.90;;;20.30;99.90;;;;;;5076124;28;20399;-71
2023/08/13 06:14:58;;;;;;;1999.90;999.90;;;20.40;99.90;;;;;;5076008;28;20032;-71
2023/08/13 06:17:24;;;;;;;1999.90;999.90;;;20.20;99.90;;;;;;5076151;28;20039;-71
2023/08/13 06:19:49;;;;;;;1999.90;999.90;;;20.20;99.90;;;;;;5076375;28;20078;-71
2023/08/13 06:22:15;;;;;;;1999.90;999.90;;;20.20;99.90;;;;;;5076438;28;20120;-73
2023/08/13 06:24:41;;;;;;;1999.90;999.90;;;20.30;99.90;;;;;;5075585;28;20055;-73
2023/08/13 06:27:06;;;;;;;1999.90;999.90;;;20.40;99.90;;;;;;5075702;28;20037;-73
2023/08/13 06:29:32;;;;;;;1999.90;999.90;;;20.40;99.90;;;;;;5076053;28;20110;-73
2023/08/13 06:32:00;;;;;;;1999.90;999.90;;;20.40;99.90;;;;;;5076055;28;20041;-73
2023/08/13 06:34:27;;;;;;;1999.90;999.90;;;20.50;99.90;;;;;;5057168;28;20074;-73
2023/08/13 06:36:53;;;;;;;1999.90;999.90;;;20.60;99.90;;;;;;5056965;28;20029;-75
2023/08/13 06:39:21;;;;;;;1999.90;999.90;;;20.70;99.90;;;;;;5075443;28;20029;-73
2023/08/13 06:41:47;;;;;;;1999.90;999.90;;;20.50;99.90;;;;;;5057700;28;20059;-73
2023/08/13 06:44:20;;;;;;;1999.90;999.90;;;20.60;99.90;;;;;;5075376;28;20801;-74
2023/08/13 06:46:49;;;;;;;1999.90;999.90;;;20.50;99.90;;;;;;5075687;28;20033;-73
2023/08/13 06:49:15;;;;;;;1999.90;999.90;;;20.40;99.90;;;;;;5075848;28;20025;-73
2023/08/13 06:51:41;;;;;;;1999.90;999.90;;;20.50;99.90;;;;;;5075675;28;20418;-74
2023/08/13 06:54:07;;;;;;;1999.90;999.90;;;20.70;99.90;;;;;;5075615;28;20064;-80
2023/08/13 06:56:35;;;;;;;1999.90;999.90;;;20.90;99.90;;;;;;5075564;28;20040;-73
2023/08/13 06:59:00;;;;;;;1999.90;999.90;;;21.00;99.90;;;;;;5057674;28;20033;-78
2023/08/13 07:01:26;;;;;;;1999.90;999.90;;;21.20;99.90;;;;;;5075955;28;20029;-75
2023/08/13 07:03:52;;;;;;;1999.90;999.90;;;21.40;99.90;;;;;;5075658;28;20029;-75
2023/08/13 07:06:17;;;;;;;1999.90;999.90;;;21.60;99.90;;;;;;5057221;28;20498;-78
2023/08/13 07:08:43;;;;;;;1999.90;999.90;;;21.60;99.90;;;;;;5075338;28;20037;-77
2023/08/13 07:11:08;;;;;;;1999.90;999.90;;;21.60;99.90;;;;;;5076141;28;20040;-77
2023/08/13 07:13:34;;;;;;;1999.90;999.90;;;21.50;99.90;;;;;;5074268;28;20048;-77
2023/08/13 07:15:59;;;;;;;1999.90;999.90;;;21.70;99.90;;;;;;5056694;28;20029;-79
2023/08/13 07:18:25;;;;;;;1999.90;999.90;;;21.60;99.90;;;;;;5057240;28;20058;-78
2023/08/13 07:20:50;;;;;;;1999.90;999.90;;;21.80;99.90;;;;;;5057377;28;20601;-77
2023/08/13 07:23:16;;;;;;;1999.90;999.90;;;22.00;99.90;;;;;;5075065;28;20083;-77
2023/08/13 07:25:42;;;;;;;1999.90;999.90;;;22.00;99.90;;;;;;5073229;28;20115;-77
2023/08/13 07:28:08;;;;;;;1999.90;999.90;;;21.90;99.90;;;;;;5038033;28;20161;-80
2023/08/13 07:30:33;;;;;;;1999.90;999.90;;;22.10;99.90;;;;;;5055211;28;20523;-74
2023/08/13 07:32:59;;;;;;;1999.90;999.90;;;22.10;99.90;;;;;;5054995;28;20433;-75
2023/08/13 07:35:25;;;;;;;1999.90;999.90;;;22.30;99.90;;;;;;5054691;28;20032;-76
2023/08/13 07:37:52;;;;;;;1999.90;999.90;;;22.40;99.90;;;;;;5055048;28;20030;-74
2023/08/13 07:40:18;;;;;;;1999.90;999.90;;;22.40;99.90;;;;;;5054455;28;20021;-78
2023/08/13 07:42:44;;;;;;;1999.90;999.90;;;22.50;99.90;;;;;;5054771;28;20392;-75
2023/08/13 07:45:10;;;;;;;1999.90;999.90;;;22.60;99.90;;;;;;5054461;28;20107;-72
2023/08/13 07:47:36;;;;;;;1999.90;999.90;;;22.60;99.90;;;;;;5054590;28;20121;-76
2023/08/13 07:50:04;;;;;;;1999.90;999.90;;;22.70;99.90;;;;;;5053925;28;20032;-75
2023/08/13 07:52:31;;;;;;;1999.90;999.90;;;22.70;99.90;;;;;;5054639;28;20471;-75
2023/08/13 07:54:57;;;;;;;1999.90;999.90;;;22.90;99.90;;;;;;5036532;28;20087;-75
2023/08/13 07:57:23;;;;;;;1999.90;999.90;;;22.80;99.90;;;;;;5054644;28;20087;-77
2023/08/13 07:59:49;;;;;;;1999.90;999.90;;;22.70;99.90;;;;;;5036686;28;20487;-74
2023/08/13 08:02:15;;;;;;;1999.90;999.90;;;22.80;99.90;;;;;;5054732;28;20033;-77
2023/08/13 08:04:42;;;;;;;1999.90;999.90;;;22.90;99.90;;;;;;5053955;28;20376;-79
2023/08/13 08:07:07;;;;;;;1999.90;999.90;;;22.90;99.90;;;;;;5034291;28;20042;-77
2023/08/13 08:09:33;;;;;;;1999.90;999.90;;;22.60;99.90;;;;;;5034878;28;20033;-74
2023/08/13 08:11:58;;;;;;;1999.90;999.90;;;22.50;99.90;;;;;;5033872;28;20073;-74
2023/08/13 08:14:24;;;;;;;1999.90;999.90;;;22.80;99.90;;;;;;5016596;28;20030;-78
2023/08/13 08:16:54;;;;;;;1999.90;999.90;;;23.00;99.90;;;;;;5034524;28;20044;-76
2023/08/13 08:19:20;;;;;;;1999.90;999.90;;;23.10;99.90;;;;;;5038183;28;20045;-77
2023/08/13 08:21:45;;;;;;;1999.90;999.90;;;22.90;99.90;;;;;;5016724;28;20056;-80
2023/08/13 08:24:11;;;;;;;1999.90;999.90;;;22.80;99.90;;;;;;5016178;28;20365;-76
2023/08/13 08:26:36;;;;;;;1999.90;999.90;;;22.80;99.90;;;;;;5034417;28;20407;-76
2023/08/13 08:29:02;;;;;;;1999.90;999.90;;;22.70;99.90;;;;;;5016347;28;20030;-76
2023/08/13 08:31:28;;;;;;;1999.90;999.90;;;22.80;99.90;;;;;;5038411;28;20090;-78
2023/08/13 08:33:53;;;;;;;1999.90;999.90;;;22.90;99.90;;;;;;5018678;28;20038;-81
2023/08/13 08:36:19;;;;;;;1999.90;999.90;;;22.90;99.90;;;;;;5015916;28;20042;-73
2023/08/13 08:38:44;;;;;;;1999.90;999.90;;;23.00;99.90;;;;;;5034055;28;20558;-73
2023/08/13 08:41:11;;;;;;;1999.90;999.90;;;23.10;99.90;;;;;;5034172;28;20403;-72
2023/08/13 08:43:38;;;;;;;1999.90;999.90;;;23.10;99.90;;;;;;5036463;28;20045;-73
2023/08/13 08:46:06;;;;;;;1999.90;999.90;;;23.40;99.90;;;;;;5018577;28;20116;-75
2023/08/13 08:48:33;;;;;;;1999.90;999.90;;;23.40;99.90;;;;;;5034415;28;20427;-76
2023/08/13 08:50:59;;;;;;;1999.90;999.90;;;23.90;99.90;;;;;;5037955;28;20025;-80
2023/08/13 08:53:25;;;;;;;1999.90;999.90;;;24.10;99.90;;;;;;5035322;28;20129;-77
2023/08/13 08:55:52;;;;;;;1999.90;999.90;;;24.10;99.90;;;;;;5053465;28;20032;-77
2023/08/13 08:58:17;;;;;;;1999.90;999.90;;;24.10;99.90;;;;;;5053294;28;20037;-77
2023/08/13 09:00:43;;;;;;;1999.90;999.90;;;24.10;99.90;;;;;;5053392;28;20037;-77
2023/08/13 09:03:09;;;;;;;1999.90;999.90;;;24.00;99.90;;;;;;5055378;28;20553;-77
2023/08/13 09:05:36;;;;;;;1999.90;999.90;;;24.00;99.90;;;;;;5054743;28;20033;-77
2023/08/13 09:08:20;;;;;;;1999.90;999.90;;;23.80;99.90;;;;;;5085625;22;20044;-75
2023/08/13 09:10:45;;;;;;;1999.90;999.90;;;24.00;99.90;;;;;;5076090;28;20051;-74
2023/08/13 09:13:11;;;;;;;1999.90;999.90;;;23.90;99.90;;;;;;5073663;28;20040;-75
2023/08/13 09:15:49;;;;;;;1999.90;999.90;;;23.90;99.90;;;;;;5075999;28;20040;-75
2023/08/13 09:18:15;;;;;;;1999.90;999.90;;;24.00;99.90;;;;;;5076715;28;20060;-74
2023/08/13 09:20:46;;;;;;;1999.90;999.90;;;24.10;99.90;;;;;;5053489;28;20116;-74
2023/08/13 09:23:23;;;;;;;1999.90;999.90;;;23.80;99.90;;;;;;5040650;28;20084;-74
2023/08/13 09:25:52;;;;;;;1999.90;999.90;;;23.80;99.90;;;;;;5055440;28;20030;-74
2023/08/13 09:28:18;;;;;;;1999.90;999.90;;;24.30;99.90;;;;;;5062508;28;20094;-74
2023/08/13 09:30:44;;;;;;;1999.90;999.90;;;24.70;99.90;;;;;;5076783;28;20083;-74
2023/08/13 09:33:14;;;;;;;1999.90;999.90;;;24.90;99.90;;;;;;5077052;28;20042;-74
2023/08/13 09:35:40;;;;;;;1999.90;999.90;;;24.90;99.90;;;;;;5073228;28;20029;-74
2023/08/13 09:38:06;;;;;;;1999.90;999.90;;;24.30;99.90;;;;;;5072178;28;20137;-75
2023/08/13 09:40:31;;;;;;;1999.90;999.90;;;24.00;99.90;;;;;;5059720;28;20127;-74
2023/08/13 09:42:58;;;;;;;1999.90;999.90;;;23.80;99.90;;;;;;5039508;28;20124;-74
2023/08/13 09:45:28;;;;;;;1999.90;999.90;;;23.70;99.90;;;;;;5052922;28;20052;-75
2023/08/13 09:47:55;;;;;;;1999.90;999.90;;;23.70;99.90;;;;;;5065463;28;20524;-75
2023/08/13 09:50:25;;;;;;;1999.90;999.90;;;23.80;99.90;;;;;;5057068;28;20071;-76
2023/08/13 09:52:53;;;;;;;1999.90;999.90;;;23.90;99.90;;;;;;5076124;28;20495;-75
2023/08/13 09:55:23;;;;;;;1999.90;999.90;;;24.00;99.90;;;;;;5058616;28;20041;-76
2023/08/13 09:57:52;;;;;;;1999.90;999.90;;;24.50;99.90;;;;;;5056383;28;20033;-76
2023/08/13 10:00:18;;;;;;;1999.90;999.90;;;24.90;99.90;;;;;;5056405;28;20022;-76
2023/08/13 10:02:44;;;;;;;1999.90;999.90;;;25.10;99.90;;;;;;5056427;28;20083;-78
2023/08/13 10:05:12;;;;;;;1999.90;999.90;;;24.90;99.90;;;;;;5056060;28;20029;-78
2023/08/13 10:07:38;;;;;;;1999.90;999.90;;;24.90;99.90;;;;;;5056063;28;20037;-78
2023/08/13 10:10:04;;;;;;;1999.90;999.90;;;25.00;99.90;;;;;;5056418;28;20612;-76
2023/08/13 10:12:31;;;;;;;1999.90;999.90;;;25.10;99.90;;;;;;5056032;28;20149;-76
2023/08/13 10:14:57;;;;;;;1999.90;999.90;;;25.40;99.90;;;;;;5063561;28;20040;-76
2023/08/13 10:17:26;;;;;;;1999.90;999.90;;;25.60;99.90;;;;;;5076223;28;20037;-76
2023/08/13 10:19:54;;;;;;;1999.90;999.90;;;25.60;99.90;;;;;;5076308;28;20483;-76
2023/08/13 10:22:37;;;;;;;1999.90;999.90;;;25.70;99.90;;;;;;5075931;28;20037;-78
2023/08/13 10:25:06;;;;;;;1999.90;999.90;;;25.80;99.90;;;;;;5076102;28;20049;-77
2023/08/13 10:27:35;;;;;;;1999.90;999.90;;;25.80;99.90;;;;;;5074173;28;20024;-75
2023/08/13 10:30:07;;;;;;;1999.90;999.90;;;25.80;99.90;;;;;;5075755;28;20037;-77
2023/08/13 10:32:36;;;;;;;1999.90;999.90;;;25.90;99.90;;;;;;5075774;28;20624;-78
2023/08/13 10:35:29;;;;;;;1999.90;999.90;;;25.80;99.90;;;;;;5072827;28;20036;-76
2023/08/13 10:37:59;;;;;;;1999.90;999.90;;;26.20;99.90;;;;;;5052330;28;20029;-76
2023/08/13 10:40:25;;;;;;;1999.90;999.90;;;26.70;99.90;;;;;;5053866;28;20057;-76
2023/08/13 10:42:55;;;;;;;1999.90;999.90;;;26.80;99.90;;;;;;5055593;28;20477;-77
2023/08/13 10:45:24;;;;;;;1999.90;999.90;;;26.80;99.90;;;;;;5053628;28;20029;-77
2023/08/13 10:47:58;;;;;;;1999.90;999.90;;;26.80;99.90;;;;;;5035930;28;20034;-77
2023/08/13 10:50:31;;;;;;;1999.90;999.90;;;26.90;99.90;;;;;;5042833;28;20064;-75
2023/08/13 10:53:09;;;;;;;1999.90;999.90;;;27.30;99.90;;;;;;5054112;28;20037;-79
2023/08/13 10:55:40;;;;;;;1999.90;999.90;;;28.00;99.90;;;;;;5056614;28;20038;-75
2023/08/13 10:58:07;;;;;;;1999.90;999.90;;;28.70;99.90;;;;;;5045138;28;20061;-76
2023/08/13 11:00:42;;;;;;;1999.90;999.90;;;28.50;99.90;;;;;;5038231;28;20125;-76
2023/08/13 11:03:19;;;;;;;1999.90;999.90;;;28.30;99.90;;;;;;5041722;28;20033;-76
2023/08/13 11:05:49;;;;;;;1999.90;999.90;;;27.70;99.90;;;;;;5055174;28;20022;-75
2023/08/13 11:08:19;;;;;;;1999.90;999.90;;;27.30;99.90;;;;;;5051187;28;20034;-77
2023/08/13 11:10:47;;;;;;;1999.90;999.90;;;27.00;99.90;;;;;;5034208;28;20057;-79
2023/08/13 11:13:13;;;;;;;1999.90;999.90;;;26.90;99.90;;;;;;5035413;28;20038;-77
2023/08/13 11:15:39;;;;;;;1999.90;999.90;;;26.60;99.90;;;;;;5035264;28;20507;-77
2023/08/13 11:18:05;;;;;;;1999.90;999.90;;;26.80;99.90;;;;;;5035185;28;20038;-77
2023/08/13 11:20:31;;;;;;;1999.90;999.90;;;26.80;99.90;;;;;;5035520;28;20091;-79
2023/08/13 11:22:57;;;;;;;1999.90;999.90;;;26.90;99.90;;;;;;5033891;28;20399;-78
2023/08/13 11:25:26;;;;;;;1999.90;999.90;;;26.90;99.90;;;;;;5033861;28;20548;-76
2023/08/13 11:27:51;;;;;;;1999.90;999.90;;;26.90;99.90;;;;;;5035021;28;20406;-77
2023/08/13 11:30:17;;;;;;;1999.90;999.90;;;27.00;99.90;;;;;;5035333;28;20030;-77
2023/08/13 11:32:44;;;;;;;1999.90;999.90;;;26.70;99.90;;;;;;5033753;28;20045;-77
2023/08/13 11:35:10;;;;;;;1999.90;999.90;;;26.70;99.90;;;;;;5033399;28;20030;-77
2023/08/13 11:37:39;;;;;;;1999.90;999.90;;;26.80;99.90;;;;;;5034952;28;20520;-75
2023/08/13 11:40:07;;;;;;;1999.90;999.90;;;26.70;99.90;;;;;;5062298;28;20068;-76
2023/08/13 11:42:34;;;;;;;1999.90;999.90;;;26.60;99.90;;;;;;5075137;28;20116;-76
2023/08/13 11:45:09;;;;;;;1999.90;999.90;;;26.40;99.90;;;;;;5074987;28;20901;-76
2023/08/13 11:47:34;;;;;;;1999.90;999.90;;;26.70;99.90;;;;;;5074563;28;20128;-76
2023/08/13 11:50:00;;;;;;;1999.90;999.90;;;26.70;99.90;;;;;;5073578;28;20033;-75
2023/08/13 11:52:26;;;;;;;1999.90;999.90;;;26.80;99.90;;;;;;5074807;28;20037;-76
2023/08/13 11:54:51;;;;;;;1999.90;999.90;;;26.80;99.90;;;;;;5074810;28;20037;-76
2023/08/13 11:57:19;;;;;;;1999.90;999.90;;;26.50;99.90;;;;;;5074906;28;20815;-76